sensor_id;sensor_type;location;lat;lon;timestamp;pressure;altitude;pressure_sealevel;temperature;humidity
55373;BME280;41249;47.838;16.490;2022-08-19T00:01:54;98436.88;;;21.59;52.13
55373;BME280;41249;47.838;16.490;2022-08-19T00:04:24;98433.06;;;21.50;53.41
55373;BME280;41249;47.838;16.490;2022-08-19T00:06:52;98425.53;;;21.67;52.46
55373;BME280;41249;47.838;16.490;2022-08-19T00:09:22;98431.44;;;21.49;53.37
55373;BME280;41249;47.838;16.490;2022-08-19T00:11:50;98421.66;;;21.38;54.21
55373;BME280;41249;47.838;16.490;2022-08-19T00:14:17;98421.69;;;21.43;54.44
55373;BME280;41249;47.838;16.490;2022-08-19T00:16:46;98424.31;;;21.18;55.94
55373;BME280;41249;47.838;16.490;2022-08-19T00:19:15;98417.84;;;21.24;56.15
55373;BME280;41249;47.838;16.490;2022-08-19T00:21:43;98414.56;;;21.22;55.22
55373;BME280;41249;47.838;16.490;2022-08-19T00:24:11;98417.94;;;21.44;53.80
55373;BME280;41249;47.838;16.490;2022-08-19T00:26:39;98397.94;;;21.55;52.75
55373;BME280;41249;47.838;16.490;2022-08-19T00:29:07;98408.22;;;21.69;52.48
55373;BME280;41249;47.838;16.490;2022-08-19T00:31:34;98396.31;;;21.80;52.14
55373;BME280;41249;47.838;16.490;2022-08-19T00:34:02;98394.44;;;21.90;51.38
55373;BME280;41249;47.838;16.490;2022-08-19T00:36:29;98392.81;;;21.89;51.52
55373;BME280;41249;47.838;16.490;2022-08-19T00:38:56;98387.69;;;22.03;50.52
55373;BME280;41249;47.838;16.490;2022-08-19T00:41:24;98383.34;;;22.07;50.43
55373;BME280;41249;47.838;16.490;2022-08-19T00:44:01;98385.78;;;22.19;49.78
55373;BME280;41249;47.838;16.490;2022-08-19T00:46:29;98384.41;;;22.32;48.72
55373;BME280;41249;47.838;16.490;2022-08-19T00:48:56;98397.91;;;22.42;48.67
55373;BME280;41249;47.838;16.490;2022-08-19T00:51:26;98395.19;;;22.52;48.03
55373;BME280;41249;47.838;16.490;2022-08-19T00:53:55;98394.13;;;22.48;49.15
55373;BME280;41249;47.838;16.490;2022-08-19T00:56:23;98392.16;;;21.16;55.68
55373;BME280;41249;47.838;16.490;2022-08-19T00:58:54;98393.81;;;20.70;59.87
55373;BME280;41249;47.838;16.490;2022-08-19T01:01:22;98395.50;;;20.76;60.55
55373;BME280;41249;47.838;16.490;2022-08-19T01:03:50;98400.94;;;20.81;60.69
55373;BME280;41249;47.838;16.490;2022-08-19T01:06:25;98406.66;;;20.42;64.92
55373;BME280;41249;47.838;16.490;2022-08-19T01:08:53;98417.22;;;20.12;67.53
55373;BME280;41249;47.838;16.490;2022-08-19T01:11:20;98399.75;;;20.19;67.65
55373;BME280;41249;47.838;16.490;2022-08-19T01:13:47;98397.41;;;20.33;66.46
55373;BME280;41249;47.838;16.490;2022-08-19T01:16:17;98399.06;;;20.39;66.60
55373;BME280;41249;47.838;16.490;2022-08-19T01:18:46;98400.94;;;20.39;68.43
55373;BME280;41249;47.838;16.490;2022-08-19T01:21:32;98397.41;;;20.33;67.71
55373;BME280;41249;47.838;16.490;2022-08-19T01:24:01;98396.31;;;20.29;68.98
55373;BME280;41249;47.838;16.490;2022-08-19T01:26:28;98392.47;;;20.20;69.34
55373;BME280;41249;47.838;16.490;2022-08-19T01:28:58;98395.38;;;20.13;70.36
55373;BME280;41249;47.838;16.490;2022-08-19T01:31:28;98401.72;;;20.29;69.47
55373;BME280;41249;47.838;16.490;2022-08-19T01:34:00;98416.50;;;20.26;71.05
55373;BME280;41249;47.838;16.490;2022-08-19T01:38:56;98424.81;;;20.20;69.53
55373;BME280;41249;47.838;16.490;2022-08-19T01:41:24;98422.19;;;20.25;70.93
55373;BME280;41249;47.838;16.490;2022-08-19T01:43:52;98418.75;;;20.02;73.14
55373;BME280;41249;47.838;16.490;2022-08-19T01:46:39;98396.53;;;19.90;74.74
55373;BME280;41249;47.838;16.490;2022-08-19T01:49:07;98385.66;;;19.80;76.64
55373;BME280;41249;47.838;16.490;2022-08-19T01:51:35;98393.97;;;19.73;78.50
55373;BME280;41249;47.838;16.490;2022-08-19T01:54:07;98404.81;;;19.79;77.14
55373;BME280;41249;47.838;16.490;2022-08-19T01:56:34;98405.63;;;19.79;78.73
55373;BME280;41249;47.838;16.490;2022-08-19T01:59:04;98405.69;;;19.89;74.75
55373;BME280;41249;47.838;16.490;2022-08-19T02:01:32;98415.75;;;19.99;73.96
55373;BME280;41249;47.838;16.490;2022-08-19T02:04:01;98410.50;;;20.14;70.98
55373;BME280;41249;47.838;16.490;2022-08-19T02:06:28;98411.81;;;20.12;72.67
55373;BME280;41249;47.838;16.490;2022-08-19T02:08:55;98416.13;;;20.08;73.62
55373;BME280;41249;47.838;16.490;2022-08-19T02:11:32;98417.47;;;19.78;77.93
55373;BME280;41249;47.838;16.490;2022-08-19T02:14:06;98413.47;;;19.54;79.21
55373;BME280;41249;47.838;16.490;2022-08-19T02:16:33;98409.88;;;19.21;83.99
55373;BME280;41249;47.838;16.490;2022-08-19T02:19:01;98414.31;;;19.10;87.49
55373;BME280;41249;47.838;16.490;2022-08-19T02:21:28;98417.38;;;19.19;88.29
55373;BME280;41249;47.838;16.490;2022-08-19T02:23:55;98417.34;;;19.14;88.80
55373;BME280;41249;47.838;16.490;2022-08-19T02:26:23;98426.91;;;19.27;88.52
55373;BME280;41249;47.838;16.490;2022-08-19T02:28:50;98425.25;;;19.26;88.29
55373;BME280;41249;47.838;16.490;2022-08-19T02:31:19;98429.22;;;19.18;91.30
55373;BME280;41249;47.838;16.490;2022-08-19T02:33:47;98425.97;;;19.16;91.85
55373;BME280;41249;47.838;16.490;2022-08-19T02:36:16;98418.44;;;19.18;91.15
55373;BME280;41249;47.838;16.490;2022-08-19T02:38:46;98407.19;;;19.21;95.37
55373;BME280;41249;47.838;16.490;2022-08-19T02:41:32;98409.06;;;19.42;94.47
55373;BME280;41249;47.838;16.490;2022-08-19T02:44:01;98415.06;;;19.50;94.11
55373;BME280;41249;47.838;16.490;2022-08-19T02:46:48;98406.66;;;19.46;94.62
55373;BME280;41249;47.838;16.490;2022-08-19T02:49:19;98408.06;;;19.54;95.35
55373;BME280;41249;47.838;16.490;2022-08-19T02:51:46;98410.56;;;19.33;96.66
55373;BME280;41249;47.838;16.490;2022-08-19T02:54:14;98412.56;;;19.21;98.33
55373;BME280;41249;47.838;16.490;2022-08-19T02:56:43;98418.97;;;19.15;100.00
55373;BME280;41249;47.838;16.490;2022-08-19T02:59:10;98421.72;;;19.20;100.00
55373;BME280;41249;47.838;16.490;2022-08-19T03:01:39;98423.88;;;19.23;100.00
55373;BME280;41249;47.838;16.490;2022-08-19T03:04:09;98425.06;;;19.32;100.00
55373;BME280;41249;47.838;16.490;2022-08-19T03:06:41;98443.09;;;19.05;100.00
55373;BME280;41249;47.838;16.490;2022-08-19T03:09:09;98440.88;;;19.02;100.00
55373;BME280;41249;47.838;16.490;2022-08-19T03:11:36;98443.31;;;19.03;100.00
55373;BME280;41249;47.838;16.490;2022-08-19T03:14:05;98438.09;;;18.97;100.00
55373;BME280;41249;47.838;16.490;2022-08-19T03:16:36;98434.88;;;18.94;100.00
55373;BME280;41249;47.838;16.490;2022-08-19T03:19:06;98445.63;;;18.94;100.00
55373;BME280;41249;47.838;16.490;2022-08-19T03:21:33;98459.78;;;19.07;100.00
55373;BME280;41249;47.838;16.490;2022-08-19T03:24:04;98466.47;;;19.04;100.00
55373;BME280;41249;47.838;16.490;2022-08-19T03:26:31;98461.34;;;19.03;100.00
55373;BME280;41249;47.838;16.490;2022-08-19T03:29:02;98470.88;;;19.10;100.00
55373;BME280;41249;47.838;16.490;2022-08-19T03:31:31;98471.81;;;18.99;100.00
55373;BME280;41249;47.838;16.490;2022-08-19T03:34:23;98465.63;;;18.99;100.00
55373;BME280;41249;47.838;16.490;2022-08-19T03:36:57;98467.28;;;18.83;100.00
55373;BME280;41249;47.838;16.490;2022-08-19T03:39:25;98465.72;;;18.87;100.00
55373;BME280;41249;47.838;16.490;2022-08-19T03:41:53;98469.13;;;18.99;100.00
55373;BME280;41249;47.838;16.490;2022-08-19T03:44:43;98474.97;;;19.13;100.00
55373;BME280;41249;47.838;16.490;2022-08-19T03:47:11;98467.38;;;19.10;100.00
55373;BME280;41249;47.838;16.490;2022-08-19T03:49:42;98473.34;;;19.12;100.00
55373;BME280;41249;47.838;16.490;2022-08-19T03:52:09;98475.19;;;19.11;100.00
55373;BME280;41249;47.838;16.490;2022-08-19T03:54:36;98471.69;;;19.11;100.00
55373;BME280;41249;47.838;16.490;2022-08-19T03:57:04;98472.00;;;18.92;100.00
55373;BME280;41249;47.838;16.490;2022-08-19T03:59:33;98472.91;;;18.81;100.00
55373;BME280;41249;47.838;16.490;2022-08-19T04:02:05;98471.84;;;18.82;100.00
55373;BME280;41249;47.838;16.490;2022-08-19T04:04:36;98476.47;;;18.65;100.00
55373;BME280;41249;47.838;16.490;2022-08-19T04:07:04;98471.78;;;18.77;100.00
55373;BME280;41249;47.838;16.490;2022-08-19T04:09:33;98488.06;;;18.87;100.00
55373;BME280;41249;47.838;16.490;2022-08-19T04:12:00;98485.13;;;18.89;100.00
55373;BME280;41249;47.838;16.490;2022-08-19T04:14:29;98489.78;;;18.93;100.00
55373;BME280;41249;47.838;16.490;2022-08-19T04:16:58;98490.50;;;19.06;100.00
55373;BME280;41249;47.838;16.490;2022-08-19T04:19:26;98484.50;;;19.04;100.00
55373;BME280;41249;47.838;16.490;2022-08-19T04:21:53;98488.09;;;19.09;100.00
55373;BME280;41249;47.838;16.490;2022-08-19T04:24:21;98484.47;;;18.99;100.00
55373;BME280;41249;47.838;16.490;2022-08-19T04:26:49;98488.16;;;19.14;99.41
55373;BME280;41249;47.838;16.490;2022-08-19T04:29:23;98491.84;;;19.30;99.27
55373;BME280;41249;47.838;16.490;2022-08-19T04:31:53;98499.38;;;19.28;98.58
55373;BME280;41249;47.838;16.490;2022-08-19T04:34:22;98499.03;;;19.41;98.24
55373;BME280;41249;47.838;16.490;2022-08-19T04:36:52;98507.41;;;19.45;100.00
55373;BME280;41249;47.838;16.490;2022-08-19T04:39:23;98505.97;;;19.37;100.00
55373;BME280;41249;47.838;16.490;2022-08-19T04:42:11;98509.00;;;19.41;100.00
55373;BME280;41249;47.838;16.490;2022-08-19T04:44:56;98509.38;;;19.76;98.65
55373;BME280;41249;47.838;16.490;2022-08-19T04:47:25;98511.41;;;19.91;100.00
55373;BME280;41249;47.838;16.490;2022-08-19T04:50:12;98517.22;;;19.78;100.00
55373;BME280;41249;47.838;16.490;2022-08-19T04:52:39;98522.97;;;19.87;100.00
55373;BME280;41249;47.838;16.490;2022-08-19T04:55:10;98531.81;;;19.82;100.00
55373;BME280;41249;47.838;16.490;2022-08-19T04:57:37;98530.59;;;19.68;100.00
55373;BME280;41249;47.838;16.490;2022-08-19T05:00:08;98531.59;;;19.62;100.00
55373;BME280;41249;47.838;16.490;2022-08-19T05:02:35;98536.78;;;19.68;100.00
55373;BME280;41249;47.838;16.490;2022-08-19T05:05:02;98542.56;;;19.77;100.00
55373;BME280;41249;47.838;16.490;2022-08-19T05:07:29;98538.56;;;19.36;100.00
55373;BME280;41249;47.838;16.490;2022-08-19T05:09:57;98538.19;;;19.49;100.00
55373;BME280;41249;47.838;16.490;2022-08-19T05:12:25;98534.97;;;19.30;100.00
55373;BME280;41249;47.838;16.490;2022-08-19T05:14:55;98532.91;;;19.59;100.00
55373;BME280;41249;47.838;16.490;2022-08-19T05:17:25;98536.78;;;19.68;100.00
55373;BME280;41249;47.838;16.490;2022-08-19T05:19:55;98543.00;;;19.69;100.00
55373;BME280;41249;47.838;16.490;2022-08-19T05:22:41;98548.72;;;19.51;100.00
55373;BME280;41249;47.838;16.490;2022-08-19T05:25:12;98553.13;;;19.57;100.00
55373;BME280;41249;47.838;16.490;2022-08-19T05:27:40;98566.97;;;19.43;100.00
55373;BME280;41249;47.838;16.490;2022-08-19T05:30:08;98570.16;;;19.24;100.00
55373;BME280;41249;47.838;16.490;2022-08-19T05:32:35;98576.78;;;19.55;100.00
55373;BME280;41249;47.838;16.490;2022-08-19T05:35:03;98573.06;;;19.56;100.00
55373;BME280;41249;47.838;16.490;2022-08-19T05:37:31;98580.00;;;19.52;100.00
55373;BME280;41249;47.838;16.490;2022-08-19T05:39:57;98577.19;;;19.63;100.00
55373;BME280;41249;47.838;16.490;2022-08-19T05:42:24;98575.19;;;20.02;96.95
55373;BME280;41249;47.838;16.490;2022-08-19T05:44:51;98572.16;;;20.21;95.04
55373;BME280;41249;47.838;16.490;2022-08-19T05:47:19;98568.59;;;20.47;93.16
55373;BME280;41249;47.838;16.490;2022-08-19T05:49:47;98573.91;;;20.64;91.58
55373;BME280;41249;47.838;16.490;2022-08-19T05:52:16;98578.59;;;20.74;90.46
55373;BME280;41249;47.838;16.490;2022-08-19T05:54:45;98597.53;;;20.84;88.13
55373;BME280;41249;47.838;16.490;2022-08-19T05:57:18;98611.84;;;20.52;89.16
55373;BME280;41249;47.838;16.490;2022-08-19T05:59:45;98610.91;;;20.69;87.19
55373;BME280;41249;47.838;16.490;2022-08-19T06:02:23;98610.72;;;20.48;91.39
55373;BME280;41249;47.838;16.490;2022-08-19T06:04:51;98610.22;;;20.51;91.06
55373;BME280;41249;47.838;16.490;2022-08-19T06:07:18;98621.16;;;20.67;91.82
55373;BME280;41249;47.838;16.490;2022-08-19T06:09:46;98619.91;;;21.11;88.69
55373;BME280;41249;47.838;16.490;2022-08-19T06:12:28;98620.63;;;21.39;88.98
55373;BME280;41249;47.838;16.490;2022-08-19T06:14:58;98613.22;;;21.24;89.82
55373;BME280;41249;47.838;16.490;2022-08-19T06:17:28;98622.81;;;21.05;90.46
55373;BME280;41249;47.838;16.490;2022-08-19T06:19:57;98635.66;;;21.25;86.70
55373;BME280;41249;47.838;16.490;2022-08-19T06:22:25;98645.69;;;21.29;88.00
55373;BME280;41249;47.838;16.490;2022-08-19T06:24:52;98636.75;;;21.29;86.22
55373;BME280;41249;47.838;16.490;2022-08-19T06:27:21;98640.28;;;21.29;86.65
55373;BME280;41249;47.838;16.490;2022-08-19T06:29:48;98640.81;;;21.74;84.72
55373;BME280;41249;47.838;16.490;2022-08-19T06:32:17;98642.78;;;21.93;82.37
55373;BME280;41249;47.838;16.490;2022-08-19T06:34:45;98644.22;;;22.06;78.34
55373;BME280;41249;47.838;16.490;2022-08-19T06:37:13;98641.00;;;22.19;77.90
55373;BME280;41249;47.838;16.490;2022-08-19T06:39:42;98639.44;;;22.39;74.36
55373;BME280;41249;47.838;16.490;2022-08-19T06:42:11;98647.28;;;22.51;73.00
55373;BME280;41249;47.838;16.490;2022-08-19T06:44:41;98635.69;;;22.70;71.14
55373;BME280;41249;47.838;16.490;2022-08-19T06:47:16;98643.00;;;23.06;68.71
55373;BME280;41249;47.838;16.490;2022-08-19T06:49:57;98634.03;;;23.30;67.27
55373;BME280;41249;47.838;16.490;2022-08-19T06:52:32;98626.91;;;23.60;64.36
55373;BME280;41249;47.838;16.490;2022-08-19T06:55:03;98633.66;;;23.68;63.36
55373;BME280;41249;47.838;16.490;2022-08-19T06:57:33;98633.13;;;23.71;63.07
55373;BME280;41249;47.838;16.490;2022-08-19T06:59:59;98630.00;;;24.03;61.92
55373;BME280;41249;47.838;16.490;2022-08-19T07:02:26;98626.66;;;24.21;61.34
55373;BME280;41249;47.838;16.490;2022-08-19T07:04:53;98633.63;;;24.32;61.13
55373;BME280;41249;47.838;16.490;2022-08-19T07:07:20;98636.41;;;24.27;61.66
55373;BME280;41249;47.838;16.490;2022-08-19T07:09:49;98633.63;;;24.37;60.16
55373;BME280;41249;47.838;16.490;2022-08-19T07:12:24;98623.22;;;24.50;60.99
55373;BME280;41249;47.838;16.490;2022-08-19T07:14:52;98626.06;;;24.69;59.58
55373;BME280;41249;47.838;16.490;2022-08-19T07:17:20;98616.72;;;24.85;59.34
55373;BME280;41249;47.838;16.490;2022-08-19T07:19:47;98613.78;;;24.76;58.84
55373;BME280;41249;47.838;16.490;2022-08-19T07:22:14;98615.97;;;24.74;59.04
55373;BME280;41249;47.838;16.490;2022-08-19T07:24:42;98620.47;;;24.55;59.10
55373;BME280;41249;47.838;16.490;2022-08-19T07:27:18;98614.91;;;24.31;59.73
55373;BME280;41249;47.838;16.490;2022-08-19T07:29:52;98606.53;;;24.66;59.13
55373;BME280;41249;47.838;16.490;2022-08-19T07:32:23;98597.47;;;25.10;57.33
55373;BME280;41249;47.838;16.490;2022-08-19T07:34:53;98584.13;;;25.14;55.79
55373;BME280;41249;47.838;16.490;2022-08-19T07:37:23;98580.25;;;25.44;55.79
55373;BME280;41249;47.838;16.490;2022-08-19T07:39:54;98575.66;;;25.15;55.77
55373;BME280;41249;47.838;16.490;2022-08-19T07:42:21;98570.84;;;24.78;55.81
55373;BME280;41249;47.838;16.490;2022-08-19T07:44:48;98573.88;;;25.54;54.86
55373;BME280;41249;47.838;16.490;2022-08-19T07:47:17;98574.81;;;25.68;52.81
55373;BME280;41249;47.838;16.490;2022-08-19T07:50:07;98572.09;;;25.68;51.82
55373;BME280;41249;47.838;16.490;2022-08-19T07:52:36;98572.38;;;25.66;52.01
55373;BME280;41249;47.838;16.490;2022-08-19T07:55:08;98570.28;;;25.05;52.50
55373;BME280;41249;47.838;16.490;2022-08-19T07:57:55;98572.53;;;25.27;53.56
55373;BME280;41249;47.838;16.490;2022-08-19T08:00:22;98566.75;;;25.34;52.58
55373;BME280;41249;47.838;16.490;2022-08-19T08:02:51;98573.00;;;25.34;50.43
55373;BME280;41249;47.838;16.490;2022-08-19T08:05:22;98567.84;;;24.40;51.17
55373;BME280;41249;47.838;16.490;2022-08-19T08:08:10;98573.03;;;24.76;49.10
55373;BME280;41249;47.838;16.490;2022-08-19T08:10:56;98602.88;;;25.39;49.09
55373;BME280;41249;47.838;16.490;2022-08-19T08:13:24;98613.91;;;25.96;48.97
55373;BME280;41249;47.838;16.490;2022-08-19T08:15:52;98613.41;;;26.50;47.26
55373;BME280;41249;47.838;16.490;2022-08-19T08:18:21;98617.09;;;26.78;47.19
55373;BME280;41249;47.838;16.490;2022-08-19T08:20:54;98631.66;;;26.69;46.13
55373;BME280;41249;47.838;16.490;2022-08-19T08:23:22;98641.97;;;26.91;46.00
55373;BME280;41249;47.838;16.490;2022-08-19T08:25:51;98649.59;;;26.37;46.50
55373;BME280;41249;47.838;16.490;2022-08-19T08:28:18;98654.97;;;25.99;46.53
55373;BME280;41249;47.838;16.490;2022-08-19T08:30:47;98655.69;;;26.86;45.76
55373;BME280;41249;47.838;16.490;2022-08-19T08:33:21;98644.47;;;26.12;46.28
55373;BME280;41249;47.838;16.490;2022-08-19T08:36:06;98643.09;;;26.33;45.17
55373;BME280;41249;47.838;16.490;2022-08-19T08:38:33;98637.13;;;26.69;45.35
55373;BME280;41249;47.838;16.490;2022-08-19T08:43:55;98630.06;;;27.33;44.13
55373;BME280;41249;47.838;16.490;2022-08-19T08:46:34;98649.53;;;26.80;43.86
55373;BME280;41249;47.838;16.490;2022-08-19T08:49:24;98643.38;;;26.88;44.21
55373;BME280;41249;47.838;16.490;2022-08-19T08:52:09;98643.19;;;26.98;44.49
55373;BME280;41249;47.838;16.490;2022-08-19T08:54:41;98643.28;;;26.93;43.65
55373;BME280;41249;47.838;16.490;2022-08-19T08:57:27;98642.75;;;26.59;43.93
55373;BME280;41249;47.838;16.490;2022-08-19T09:00:10;98621.88;;;26.68;45.56
55373;BME280;41249;47.838;16.490;2022-08-19T09:02:42;98623.88;;;26.81;45.95
55373;BME280;41249;47.838;16.490;2022-08-19T09:05:10;98612.69;;;26.96;46.46
55373;BME280;41249;47.838;16.490;2022-08-19T09:10:37;98602.09;;;27.08;46.66
55373;BME280;41249;47.838;16.490;2022-08-19T09:16:14;98596.22;;;27.34;45.91
55373;BME280;41249;47.838;16.490;2022-08-19T09:18:48;98577.50;;;27.41;45.19
55373;BME280;41249;47.838;16.490;2022-08-19T09:21:15;98575.19;;;27.62;46.04
55373;BME280;41249;47.838;16.490;2022-08-19T09:23:42;98582.06;;;27.46;46.04
55373;BME280;41249;47.838;16.490;2022-08-19T09:26:12;98580.22;;;27.69;45.85
55373;BME280;41249;47.838;16.490;2022-08-19T09:28:44;98583.56;;;27.52;45.10
55373;BME280;41249;47.838;16.490;2022-08-19T09:31:17;98596.59;;;27.96;44.52
55373;BME280;41249;47.838;16.490;2022-08-19T09:33:45;98600.56;;;27.62;44.89
55373;BME280;41249;47.838;16.490;2022-08-19T09:36:14;98597.50;;;27.78;44.87
55373;BME280;41249;47.838;16.490;2022-08-19T09:38:56;98605.28;;;27.98;43.43
55373;BME280;41249;47.838;16.490;2022-08-19T09:41:24;98608.97;;;28.52;42.68
55373;BME280;41249;47.838;16.490;2022-08-19T09:43:56;98601.47;;;28.80;41.16
55373;BME280;41249;47.838;16.490;2022-08-19T09:46:27;98588.22;;;28.73;41.18
55373;BME280;41249;47.838;16.490;2022-08-19T09:48:57;98587.75;;;28.94;40.12
55373;BME280;41249;47.838;16.490;2022-08-19T09:51:32;98587.00;;;28.57;41.58
55373;BME280;41249;47.838;16.490;2022-08-19T09:54:03;98590.56;;;28.89;40.64
55373;BME280;41249;47.838;16.490;2022-08-19T09:56:31;98586.38;;;28.83;40.84
55373;BME280;41249;47.838;16.490;2022-08-19T09:59:01;98582.75;;;28.73;40.85
55373;BME280;41249;47.838;16.490;2022-08-19T10:01:29;98572.91;;;28.64;40.03
55373;BME280;41249;47.838;16.490;2022-08-19T10:03:58;98585.28;;;28.25;40.63
55373;BME280;41249;47.838;16.490;2022-08-19T10:06:27;98596.69;;;28.41;40.71
55373;BME280;41249;47.838;16.490;2022-08-19T10:09:13;98597.97;;;28.07;39.65
55373;BME280;41249;47.838;16.490;2022-08-19T10:11:42;98615.03;;;27.90;41.28
55373;BME280;41249;47.838;16.490;2022-08-19T10:14:19;98622.28;;;27.95;41.15
55373;BME280;41249;47.838;16.490;2022-08-19T10:16:49;98622.19;;;27.59;40.92
55373;BME280;41249;47.838;16.490;2022-08-19T10:19:18;98636.03;;;27.35;42.22
55373;BME280;41249;47.838;16.490;2022-08-19T10:21:51;98643.34;;;27.21;42.12
55373;BME280;41249;47.838;16.490;2022-08-19T10:24:18;98649.69;;;26.51;43.87
55373;BME280;41249;47.838;16.490;2022-08-19T10:26:50;98651.84;;;26.87;46.09
55373;BME280;41249;47.838;16.490;2022-08-19T10:29:24;98649.00;;;26.40;47.36
55373;BME280;41249;47.838;16.490;2022-08-19T10:32:02;98655.47;;;26.25;51.40
55373;BME280;41249;47.838;16.490;2022-08-19T10:34:38;98686.03;;;25.98;48.37
55373;BME280;41249;47.838;16.490;2022-08-19T10:37:15;98680.94;;;25.68;50.57
55373;BME280;41249;47.838;16.490;2022-08-19T10:39:50;98663.50;;;25.16;57.68
55373;BME280;41249;47.838;16.490;2022-08-19T10:42:17;98695.38;;;24.11;95.96
55373;BME280;41249;47.838;16.490;2022-08-19T10:44:45;98687.91;;;23.78;98.98
55373;BME280;41249;47.838;16.490;2022-08-19T10:47:13;98693.16;;;23.03;100.00
55373;BME280;41249;47.838;16.490;2022-08-19T10:49:50;98695.84;;;22.78;100.00
55373;BME280;41249;47.838;16.490;2022-08-19T10:52:42;98688.31;;;21.54;100.00
55373;BME280;41249;47.838;16.490;2022-08-19T10:55:21;98692.31;;;21.99;100.00
55373;BME280;41249;47.838;16.490;2022-08-19T10:58:14;98689.81;;;22.55;100.00
55373;BME280;41249;47.838;16.490;2022-08-19T11:00:42;98686.31;;;22.65;100.00
55373;BME280;41249;47.838;16.490;2022-08-19T11:03:12;98679.06;;;22.75;100.00
55373;BME280;41249;47.838;16.490;2022-08-19T11:05:39;98653.72;;;23.72;100.00
55373;BME280;41249;47.838;16.490;2022-08-19T11:08:08;98644.88;;;24.65;100.00
55373;BME280;41249;47.838;16.490;2022-08-19T11:10:51;98642.53;;;25.69;100.00
55373;BME280;41249;47.838;16.490;2022-08-19T11:13:20;98642.78;;;26.16;94.46
55373;BME280;41249;47.838;16.490;2022-08-19T11:15:59;98632.00;;;26.29;80.06
55373;BME280;41249;47.838;16.490;2022-08-19T11:18:34;98623.75;;;26.35;87.69
55373;BME280;41249;47.838;16.490;2022-08-19T11:21:07;98621.38;;;25.85;81.60
55373;BME280;41249;47.838;16.490;2022-08-19T11:23:34;98625.09;;;26.70;82.83
55373;BME280;41249;47.838;16.490;2022-08-19T11:26:01;98621.66;;;27.43;75.31
55373;BME280;41249;47.838;16.490;2022-08-19T11:28:28;98606.72;;;27.68;74.22
55373;BME280;41249;47.838;16.490;2022-08-19T11:30:55;98618.03;;;27.48;65.21
55373;BME280;41249;47.838;16.490;2022-08-19T11:33:22;98600.06;;;27.47;67.30
55373;BME280;41249;47.838;16.490;2022-08-19T11:35:49;98623.13;;;27.22;69.18
55373;BME280;41249;47.838;16.490;2022-08-19T11:38:15;98612.50;;;27.06;74.18
55373;BME280;41249;47.838;16.490;2022-08-19T11:40:42;98602.63;;;26.78;72.57
55373;BME280;41249;47.838;16.490;2022-08-19T11:43:09;98602.53;;;27.02;75.07
55373;BME280;41249;47.838;16.490;2022-08-19T11:45:36;98601.31;;;26.75;73.72
55373;BME280;41249;47.838;16.490;2022-08-19T11:48:03;98609.94;;;26.64;71.20
55373;BME280;41249;47.838;16.490;2022-08-19T11:50:29;98619.59;;;26.56;78.88
55373;BME280;41249;47.838;16.490;2022-08-19T11:52:56;98594.34;;;27.02;68.66
55373;BME280;41249;47.838;16.490;2022-08-19T11:55:23;98592.94;;;27.73;65.10
55373;BME280;41249;47.838;16.490;2022-08-19T11:57:50;98616.38;;;28.15;65.93
55373;BME280;41249;47.838;16.490;2022-08-19T12:00:17;98625.69;;;28.14;65.88
55373;BME280;41249;47.838;16.490;2022-08-19T12:02:44;98635.03;;;28.00;59.72
55373;BME280;41249;47.838;16.490;2022-08-19T12:05:10;98636.03;;;27.49;60.55
55373;BME280;41249;47.838;16.490;2022-08-19T12:07:39;98636.13;;;26.97;63.83
55373;BME280;41249;47.838;16.490;2022-08-19T12:10:07;98637.28;;;26.59;67.11
55373;BME280;41249;47.838;16.490;2022-08-19T12:12:36;98636.66;;;26.29;63.40
55373;BME280;41249;47.838;16.490;2022-08-19T12:15:07;98643.75;;;25.82;66.25
55373;BME280;41249;47.838;16.490;2022-08-19T12:17:34;98656.13;;;25.45;69.52
55373;BME280;41249;47.838;16.490;2022-08-19T12:20:00;98664.75;;;25.29;74.13
55373;BME280;41249;47.838;16.490;2022-08-19T12:22:27;98681.47;;;25.12;74.37
55373;BME280;41249;47.838;16.490;2022-08-19T12:24:54;98689.00;;;24.86;76.33
55373;BME280;41249;47.838;16.490;2022-08-19T12:27:21;98696.00;;;24.58;81.76
55373;BME280;41249;47.838;16.490;2022-08-19T12:30:08;98702.47;;;24.62;86.60
55373;BME280;41249;47.838;16.490;2022-08-19T12:32:35;98707.44;;;24.50;89.83
55373;BME280;41249;47.838;16.490;2022-08-19T12:35:03;98695.56;;;24.30;94.84
55373;BME280;41249;47.838;16.490;2022-08-19T12:37:30;98673.22;;;24.44;94.25
55373;BME280;41249;47.838;16.490;2022-08-19T12:39:58;98667.16;;;24.62;90.61
55373;BME280;41249;47.838;16.490;2022-08-19T12:42:25;98664.66;;;24.71;87.69
55373;BME280;41249;47.838;16.490;2022-08-19T12:44:52;98654.00;;;24.79;85.06
55373;BME280;41249;47.838;16.490;2022-08-19T12:47:18;98654.19;;;24.88;87.04
55373;BME280;41249;47.838;16.490;2022-08-19T12:49:45;98666.00;;;24.73;90.85
55373;BME280;41249;47.838;16.490;2022-08-19T12:52:21;98654.16;;;24.54;99.54
55373;BME280;41249;47.838;16.490;2022-08-19T12:54:49;98656.44;;;24.36;100.00
55373;BME280;41249;47.838;16.490;2022-08-19T12:57:24;98657.53;;;24.35;100.00
55373;BME280;41249;47.838;16.490;2022-08-19T12:59:57;98651.09;;;24.21;100.00
55373;BME280;41249;47.838;16.490;2022-08-19T13:02:24;98624.53;;;24.13;100.00
55373;BME280;41249;47.838;16.490;2022-08-19T13:04:51;98627.34;;;23.88;100.00
55373;BME280;41249;47.838;16.490;2022-08-19T13:07:17;98634.50;;;23.63;100.00
55373;BME280;41249;47.838;16.490;2022-08-19T13:09:44;98644.03;;;23.50;100.00
55373;BME280;41249;47.838;16.490;2022-08-19T13:12:11;98636.19;;;23.23;100.00
55373;BME280;41249;47.838;16.490;2022-08-19T13:14:39;98621.31;;;23.00;100.00
55373;BME280;41249;47.838;16.490;2022-08-19T13:17:07;98620.50;;;22.95;100.00